createdAt,value
2023-06-30T00:01:50.178Z,3.00
2023-06-30T00:04:19.257Z,2.72
2023-06-30T00:06:51.092Z,2.22
2023-06-30T00:09:20.348Z,2.63
2023-06-30T00:11:51.559Z,2.85
2023-06-30T00:14:19.735Z,2.67
2023-06-30T00:16:47.731Z,2.45
2023-06-30T00:19:15.593Z,2.85
2023-06-30T00:21:43.834Z,2.90
2023-06-30T00:24:12.119Z,2.63
2023-06-30T00:26:40.066Z,2.30
2023-06-30T00:29:09.711Z,2.63
2023-06-30T00:31:37.925Z,2.65
2023-06-30T00:34:05.963Z,2.50
2023-06-30T00:36:34.577Z,2.67
2023-06-30T00:39:02.633Z,3.17
2023-06-30T00:41:30.560Z,2.42
2023-06-30T00:43:59.435Z,2.90
2023-06-30T00:46:28.909Z,2.33
2023-06-30T00:48:56.976Z,2.75
2023-06-30T00:51:25.181Z,2.67
2023-06-30T00:53:53.506Z,3.00
2023-06-30T00:56:21.546Z,2.35
2023-06-30T00:58:49.673Z,3.10
2023-06-30T01:01:26.498Z,2.80
2023-06-30T01:04:01.349Z,2.85
2023-06-30T01:06:42.885Z,2.72
2023-06-30T01:09:16.170Z,2.75
2023-06-30T01:11:45.289Z,2.72
2023-06-30T01:14:15.285Z,2.72
2023-06-30T01:16:44.634Z,2.65
2023-06-30T01:19:21.505Z,3.10
2023-06-30T01:21:51.323Z,2.60
2023-06-30T01:24:22.358Z,3.10
2023-06-30T01:26:50.793Z,2.50
2023-06-30T01:29:19.644Z,2.53
2023-06-30T01:31:48.062Z,3.45
2023-06-30T01:34:17.386Z,2.72
2023-06-30T01:36:45.309Z,2.80
2023-06-30T01:39:13.328Z,2.78
2023-06-30T01:41:41.392Z,2.65
2023-06-30T01:44:09.566Z,2.85
2023-06-30T01:46:37.820Z,2.70
2023-06-30T01:49:06.146Z,3.00
2023-06-30T01:51:35.652Z,3.33
2023-06-30T01:54:03.567Z,2.53
2023-06-30T01:56:31.526Z,3.40
2023-06-30T01:58:59.409Z,2.95
2023-06-30T02:01:27.307Z,3.33
2023-06-30T02:03:55.479Z,3.22
2023-06-30T02:06:23.481Z,2.88
2023-06-30T02:08:52.832Z,3.10
2023-06-30T02:11:22.626Z,2.97
2023-06-30T02:13:50.654Z,3.10
2023-06-30T02:16:18.679Z,3.15
2023-06-30T02:18:46.768Z,3.08
2023-06-30T02:21:14.869Z,2.97
2023-06-30T02:23:42.942Z,2.60
2023-06-30T02:26:12.273Z,3.05
2023-06-30T02:28:40.377Z,3.22
2023-06-30T02:31:08.371Z,3.03
2023-06-30T02:33:36.575Z,2.70
2023-06-30T02:36:04.916Z,3.22
2023-06-30T02:38:33.517Z,3.20
2023-06-30T02:41:01.557Z,3.40
2023-06-30T02:43:30.944Z,3.10
2023-06-30T02:45:59.069Z,3.47
2023-06-30T02:48:27.302Z,3.28
2023-06-30T02:50:55.240Z,3.08
2023-06-30T02:53:23.194Z,3.60
2023-06-30T02:55:51.058Z,3.40
2023-06-30T02:58:19.004Z,3.28
2023-06-30T03:00:48.496Z,3.65
2023-06-30T03:03:16.452Z,3.65
2023-06-30T03:05:44.692Z,3.47
2023-06-30T03:08:13.017Z,3.42
2023-06-30T03:10:41.074Z,3.45
2023-06-30T03:13:09.100Z,3.10
2023-06-30T03:15:37.121Z,3.50
2023-06-30T03:18:06.605Z,3.65
2023-06-30T03:20:34.679Z,3.33
2023-06-30T03:23:02.691Z,4.00
2023-06-30T03:25:30.635Z,3.15
2023-06-30T03:27:58.673Z,3.85
2023-06-30T03:30:26.579Z,3.80
2023-06-30T03:32:54.576Z,3.80
2023-06-30T03:35:23.967Z,3.50
2023-06-30T03:37:51.812Z,4.25
2023-06-30T03:40:19.841Z,3.97
2023-06-30T03:42:48.005Z,4.00
2023-06-30T03:45:16.032Z,4.13
2023-06-30T03:47:44.091Z,4.40
2023-06-30T03:50:12.422Z,4.63
2023-06-30T03:52:41.835Z,3.83
2023-06-30T03:55:10.262Z,4.40
2023-06-30T03:57:38.221Z,4.15
2023-06-30T04:00:12.820Z,4.43
2023-06-30T04:02:41.017Z,4.57
2023-06-30T04:05:09.504Z,4.03
2023-06-30T04:07:38.757Z,4.60
2023-06-30T04:10:09.021Z,4.20
2023-06-30T04:12:36.936Z,4.00
2023-06-30T04:15:05.508Z,4.03
2023-06-30T04:17:33.469Z,4.15
2023-06-30T04:20:01.515Z,4.70
2023-06-30T04:22:29.447Z,4.28
2023-06-30T04:24:57.547Z,4.22
2023-06-30T04:27:26.936Z,4.53
2023-06-30T04:29:54.866Z,4.97
2023-06-30T04:32:25.913Z,4.43
2023-06-30T04:34:53.805Z,5.40
2023-06-30T04:37:21.851Z,4.65
2023-06-30T04:39:51.412Z,4.90
2023-06-30T04:42:19.346Z,4.80
2023-06-30T04:44:48.632Z,4.50
2023-06-30T04:47:17.696Z,4.85
2023-06-30T04:49:45.728Z,4.95
2023-06-30T04:52:14.620Z,5.00
2023-06-30T04:54:42.544Z,4.78
2023-06-30T04:57:11.130Z,5.75
2023-06-30T04:59:39.204Z,5.05
2023-06-30T05:02:08.666Z,4.47
2023-06-30T05:04:36.601Z,4.82
2023-06-30T05:07:04.996Z,5.00
2023-06-30T05:09:32.982Z,5.05
2023-06-30T05:12:00.993Z,5.60
2023-06-30T05:14:28.882Z,4.60
2023-06-30T05:16:56.926Z,4.82
2023-06-30T05:19:26.303Z,4.60
2023-06-30T05:21:54.237Z,5.15
2023-06-30T05:24:22.235Z,5.10
2023-06-30T05:26:50.851Z,5.00
2023-06-30T05:29:18.863Z,5.53
2023-06-30T05:31:46.769Z,5.30
2023-06-30T05:34:16.788Z,4.78
2023-06-30T05:36:46.745Z,5.30
2023-06-30T05:39:15.471Z,5.43
2023-06-30T05:41:43.755Z,5.22
2023-06-30T05:44:11.656Z,4.90
2023-06-30T05:46:39.972Z,4.57
2023-06-30T05:49:08.206Z,5.05
2023-06-30T05:51:36.787Z,4.97
2023-06-30T05:54:07.057Z,5.10
2023-06-30T05:56:34.996Z,5.68
2023-06-30T05:59:02.996Z,5.35
2023-06-30T06:01:31.048Z,5.10
2023-06-30T06:03:59.456Z,4.43
2023-06-30T06:06:27.573Z,5.18
2023-06-30T06:08:55.442Z,5.65
2023-06-30T06:11:24.760Z,4.68
2023-06-30T06:13:52.723Z,5.07
2023-06-30T06:16:20.952Z,4.72
2023-06-30T06:18:49.451Z,4.60
2023-06-30T06:21:19.050Z,5.20
2023-06-30T06:23:47.057Z,4.77
2023-06-30T06:26:15.087Z,4.70
2023-06-30T06:28:44.417Z,4.55
2023-06-30T06:31:15.178Z,5.00
2023-06-30T06:33:46.047Z,4.50
2023-06-30T06:36:14.007Z,4.80
2023-06-30T06:38:44.031Z,4.75
2023-06-30T06:41:11.997Z,4.57
2023-06-30T06:43:39.983Z,4.40
2023-06-30T06:46:09.570Z,4.75
2023-06-30T06:48:37.883Z,4.50
2023-06-30T06:51:05.972Z,4.70
2023-06-30T06:53:36.141Z,4.20
2023-06-30T06:56:05.056Z,4.32
2023-06-30T06:58:34.116Z,4.72
2023-06-30T07:01:02.060Z,4.90
2023-06-30T07:03:31.434Z,4.20
2023-06-30T07:05:59.899Z,4.15
2023-06-30T07:08:29.442Z,4.32
2023-06-30T07:10:57.689Z,4.60
2023-06-30T07:13:25.684Z,5.10
2023-06-30T07:15:54.203Z,4.38
2023-06-30T07:18:23.428Z,4.47
2023-06-30T07:20:55.094Z,4.53
2023-06-30T07:23:25.582Z,3.88
2023-06-30T07:25:55.146Z,4.47
2023-06-30T07:28:23.108Z,4.55
2023-06-30T07:30:51.066Z,4.97
2023-06-30T07:33:19.566Z,4.70
2023-06-30T07:35:47.795Z,4.50
2023-06-30T07:38:17.357Z,3.90
2023-06-30T07:40:55.696Z,4.20
2023-06-30T07:43:25.156Z,4.17
2023-06-30T07:45:53.511Z,4.63
2023-06-30T07:48:21.570Z,4.45
2023-06-30T07:51:03.336Z,4.45
2023-06-30T07:53:39.987Z,4.00
2023-06-30T07:56:07.930Z,4.20
2023-06-30T07:58:35.918Z,4.25
2023-06-30T08:01:04.333Z,4.20
2023-06-30T08:03:32.549Z,4.32
2023-06-30T08:06:01.473Z,4.70
2023-06-30T08:08:29.729Z,3.72
2023-06-30T08:10:59.522Z,3.80
2023-06-30T08:13:28.054Z,3.78
2023-06-30T08:15:58.156Z,4.07
2023-06-30T08:18:32.420Z,5.18
2023-06-30T08:23:15.581Z,4.40
2023-06-30T08:25:43.822Z,4.20
2023-06-30T08:28:12.154Z,4.50
2023-06-30T08:30:40.123Z,4.20
2023-06-30T08:33:08.223Z,4.13
2023-06-30T08:35:36.232Z,4.18
2023-06-30T08:38:04.153Z,4.90
2023-06-30T08:40:34.057Z,4.07
2023-06-30T08:43:06.713Z,3.75
2023-06-30T08:45:34.808Z,4.10
2023-06-30T08:48:06.501Z,3.42
2023-06-30T08:50:35.467Z,3.58
2023-06-30T08:53:04.341Z,3.65
2023-06-30T08:55:33.913Z,3.70
2023-06-30T08:58:07.046Z,3.70
2023-06-30T09:00:41.696Z,3.50
2023-06-30T09:03:10.199Z,3.78
2023-06-30T09:05:41.669Z,3.90
2023-06-30T09:08:16.836Z,3.33
2023-06-30T09:10:48.194Z,3.50
2023-06-30T09:13:19.290Z,3.75
2023-06-30T09:15:48.063Z,3.40
2023-06-30T09:18:16.534Z,3.10
2023-06-30T09:20:44.519Z,3.13
2023-06-30T09:23:14.251Z,2.88
2023-06-30T09:25:42.852Z,3.17
2023-06-30T09:28:15.000Z,3.05
2023-06-30T09:30:46.542Z,2.75
2023-06-30T09:33:18.318Z,3.00
2023-06-30T09:35:49.765Z,3.08
2023-06-30T09:38:19.085Z,3.00
2023-06-30T09:40:48.485Z,2.78
2023-06-30T09:43:22.762Z,2.80
2023-06-30T09:45:56.521Z,3.10
2023-06-30T09:48:37.340Z,2.80
2023-06-30T09:51:08.290Z,2.63
2023-06-30T09:53:38.144Z,2.55
2023-06-30T09:56:07.126Z,2.85
2023-06-30T09:58:40.429Z,3.15
2023-06-30T10:01:09.924Z,2.53
2023-06-30T10:03:48.893Z,2.70
2023-06-30T10:06:18.680Z,2.80
2023-06-30T10:08:48.136Z,2.92
2023-06-30T10:11:16.120Z,3.40
2023-06-30T10:13:48.351Z,2.80
2023-06-30T10:16:18.568Z,3.13
2023-06-30T10:18:49.092Z,2.80
2023-06-30T10:21:17.135Z,2.40
2023-06-30T10:23:47.990Z,2.63
2023-06-30T10:26:19.612Z,2.85
2023-06-30T10:28:49.994Z,3.20
2023-06-30T10:33:46.191Z,2.35
2023-06-30T10:36:15.519Z,2.60
2023-06-30T10:38:45.249Z,2.70
2023-06-30T10:41:14.912Z,2.90
2023-06-30T10:44:10.197Z,3.00
2023-06-30T10:46:52.811Z,2.60
2023-06-30T10:49:24.509Z,2.72
2023-06-30T10:51:53.994Z,2.80
2023-06-30T10:54:23.335Z,2.60
2023-06-30T10:56:52.312Z,2.80
2023-06-30T10:59:24.351Z,2.67
2023-06-30T11:02:11.593Z,2.85
2023-06-30T11:04:40.251Z,2.67
2023-06-30T11:07:08.738Z,2.10
2023-06-30T11:09:59.548Z,2.38
2023-06-30T11:12:28.811Z,1.98
2023-06-30T11:14:59.890Z,1.65
2023-06-30T11:17:29.287Z,2.65
2023-06-30T11:20:00.789Z,2.47
2023-06-30T11:22:32.362Z,2.20
2023-06-30T11:25:00.639Z,2.13
2023-06-30T11:27:31.375Z,1.98
2023-06-30T11:30:01.458Z,2.80
2023-06-30T11:32:31.247Z,2.50
2023-06-30T11:35:00.355Z,2.47
2023-06-30T11:37:31.010Z,2.80
2023-06-30T11:40:00.357Z,2.90
2023-06-30T11:42:28.544Z,2.93
2023-06-30T11:44:56.625Z,2.92
2023-06-30T11:47:26.730Z,2.80
2023-06-30T11:49:54.688Z,2.53
2023-06-30T11:52:22.600Z,3.10
2023-06-30T11:54:50.604Z,2.92
2023-06-30T11:57:18.669Z,3.08
2023-06-30T11:59:46.599Z,3.15
2023-06-30T12:02:14.956Z,3.22
2023-06-30T12:04:49.627Z,3.20
2023-06-30T12:07:17.903Z,3.30
2023-06-30T12:09:47.653Z,2.85
2023-06-30T12:12:28.502Z,3.38
2023-06-30T12:14:57.742Z,3.05
2023-06-30T12:17:28.318Z,3.05
2023-06-30T12:19:57.824Z,3.25
2023-06-30T12:22:29.282Z,2.97
2023-06-30T12:24:58.453Z,3.53
2023-06-30T12:27:28.460Z,3.20
2023-06-30T12:29:56.736Z,3.13
2023-06-30T12:32:29.175Z,3.10
2023-06-30T12:35:05.410Z,3.10
2023-06-30T12:37:35.026Z,3.35
2023-06-30T12:40:04.383Z,3.28
2023-06-30T12:42:32.568Z,3.10
2023-06-30T12:45:00.597Z,3.30
2023-06-30T12:47:28.658Z,3.38
2023-06-30T12:49:56.618Z,3.30
2023-06-30T12:52:26.033Z,3.28
2023-06-30T12:54:54.406Z,3.17
2023-06-30T12:57:22.513Z,3.10
2023-06-30T12:59:50.487Z,3.13
2023-06-30T13:02:18.544Z,3.63
2023-06-30T13:04:46.588Z,3.03
2023-06-30T13:07:14.568Z,2.80
2023-06-30T13:09:49.161Z,3.53
2023-06-30T13:12:18.421Z,3.13
2023-06-30T13:14:46.365Z,2.70
2023-06-30T13:17:16.262Z,2.45
2023-06-30T13:19:44.159Z,3.35
2023-06-30T13:22:13.256Z,2.90
2023-06-30T13:24:41.381Z,2.50
2023-06-30T13:27:10.666Z,2.45
2023-06-30T13:29:44.922Z,2.67
2023-06-30T13:32:13.083Z,2.22
2023-06-30T13:34:41.421Z,2.65
2023-06-30T13:37:09.556Z,2.65
2023-06-30T13:39:38.255Z,2.85
2023-06-30T13:42:06.798Z,2.75
2023-06-30T13:44:36.610Z,2.55
2023-06-30T13:47:05.000Z,2.40
2023-06-30T13:49:32.994Z,2.42
2023-06-30T13:52:00.941Z,2.90
2023-06-30T13:54:30.479Z,2.17
2023-06-30T13:56:58.493Z,2.00
2023-06-30T13:59:26.451Z,3.20
2023-06-30T14:01:55.787Z,3.28
2023-06-30T14:04:23.725Z,3.58
2023-06-30T14:06:51.781Z,3.55
2023-06-30T14:09:19.747Z,3.50
2023-06-30T14:11:47.761Z,3.50
2023-06-30T14:14:15.822Z,3.33
2023-06-30T14:16:44.224Z,3.55
2023-06-30T14:19:13.701Z,3.38
2023-06-30T14:21:41.741Z,3.50
2023-06-30T14:24:09.765Z,3.85
2023-06-30T14:26:38.095Z,3.35
2023-06-30T14:29:06.092Z,3.35
2023-06-30T14:31:34.156Z,3.25
2023-06-30T14:34:02.075Z,3.83
2023-06-30T14:36:31.394Z,4.18
2023-06-30T14:38:59.380Z,3.50
2023-06-30T14:41:27.290Z,3.85
2023-06-30T14:43:55.246Z,3.30
2023-06-30T14:46:23.184Z,3.10
2023-06-30T14:48:51.253Z,2.85
2023-06-30T14:51:19.138Z,3.35
2023-06-30T14:53:48.530Z,3.72
2023-06-30T14:56:16.446Z,4.05
2023-06-30T14:58:44.882Z,3.47
2023-06-30T15:01:12.843Z,3.45
2023-06-30T15:03:40.925Z,2.95
2023-06-30T15:06:08.927Z,3.08
2023-06-30T15:08:36.947Z,3.40
2023-06-30T15:11:06.245Z,3.33
2023-06-30T15:13:34.987Z,4.22
2023-06-30T15:16:03.992Z,3.75
2023-06-30T15:18:32.025Z,3.28
2023-06-30T15:21:00.068Z,3.88
2023-06-30T15:23:28.038Z,3.35
2023-06-30T15:25:55.956Z,3.70
2023-06-30T15:28:25.236Z,4.50
2023-06-30T15:30:53.240Z,3.38
2023-06-30T15:33:21.307Z,3.45
2023-06-30T15:35:49.364Z,3.67
2023-06-30T15:38:17.361Z,3.67
2023-06-30T15:40:45.997Z,3.08
2023-06-30T15:43:13.973Z,3.38
2023-06-30T15:45:43.325Z,3.88
2023-06-30T15:48:15.749Z,3.22
2023-06-30T15:50:44.499Z,3.08
2023-06-30T15:53:12.749Z,3.58
2023-06-30T15:55:40.798Z,3.10
2023-06-30T15:58:08.909Z,3.13
2023-06-30T16:00:36.818Z,3.03
2023-06-30T16:03:06.359Z,3.38
2023-06-30T16:05:34.580Z,3.33
2023-06-30T16:08:05.687Z,3.53
2023-06-30T16:10:33.666Z,3.60
2023-06-30T16:13:01.647Z,3.75
2023-06-30T16:15:29.673Z,4.18
2023-06-30T16:17:57.725Z,4.18
2023-06-30T16:20:27.396Z,3.92
2023-06-30T16:22:55.390Z,4.60
2023-06-30T16:25:23.310Z,4.15
2023-06-30T16:27:51.213Z,4.35
2023-06-30T16:30:26.693Z,3.95
2023-06-30T16:32:58.594Z,4.75
2023-06-30T16:35:28.492Z,5.43
2023-06-30T16:37:57.658Z,5.10
2023-06-30T16:40:26.156Z,5.45
2023-06-30T16:42:54.300Z,5.85
2023-06-30T16:45:22.643Z,5.82
2023-06-30T16:47:50.531Z,4.70
2023-06-30T16:50:19.092Z,5.40
2023-06-30T16:52:48.505Z,5.63
2023-06-30T16:55:16.377Z,5.82
2023-06-30T16:57:45.170Z,5.10
2023-06-30T17:00:14.192Z,5.30
2023-06-30T17:02:42.426Z,5.85
2023-06-30T17:05:11.260Z,5.15
2023-06-30T17:07:39.305Z,5.80
2023-06-30T17:10:12.049Z,5.32
2023-06-30T17:12:40.527Z,4.90
2023-06-30T17:15:10.698Z,4.88
2023-06-30T17:17:38.860Z,4.88
2023-06-30T17:20:08.447Z,6.10
2023-06-30T17:22:36.460Z,5.30
2023-06-30T17:25:05.868Z,4.93
2023-06-30T17:27:35.639Z,6.13
2023-06-30T17:30:04.137Z,4.88
2023-06-30T17:32:32.180Z,5.68
2023-06-30T17:35:00.213Z,5.93
2023-06-30T17:37:28.270Z,6.22
2023-06-30T17:39:56.205Z,5.80
2023-06-30T17:42:24.303Z,5.47
2023-06-30T17:44:53.651Z,5.28
2023-06-30T17:47:21.627Z,5.85
2023-06-30T17:49:49.740Z,5.47
2023-06-30T17:52:17.868Z,5.57
2023-06-30T17:54:47.431Z,5.82
2023-06-30T17:57:15.625Z,5.95
2023-06-30T17:59:43.726Z,5.88
2023-06-30T18:02:13.271Z,5.88
2023-06-30T18:04:42.002Z,6.13
2023-06-30T18:07:11.777Z,5.50
2023-06-30T18:09:41.580Z,5.57
2023-06-30T18:12:10.982Z,6.20
2023-06-30T18:14:40.464Z,5.45
2023-06-30T18:17:08.455Z,6.32
2023-06-30T18:19:37.827Z,6.25
2023-06-30T18:22:06.311Z,6.13
2023-06-30T18:24:34.395Z,5.97
2023-06-30T18:27:02.350Z,6.00
2023-06-30T18:29:30.400Z,6.53
2023-06-30T18:32:00.789Z,6.30
2023-06-30T18:34:29.210Z,5.80
2023-06-30T18:36:58.612Z,6.55
2023-06-30T18:39:26.639Z,6.28
2023-06-30T18:41:55.928Z,6.05
2023-06-30T18:44:26.027Z,5.97
2023-06-30T18:46:54.172Z,6.18
2023-06-30T18:49:24.738Z,6.82
2023-06-30T18:51:55.369Z,6.63
2023-06-30T18:54:24.988Z,6.88
2023-06-30T18:56:53.614Z,6.07
2023-06-30T18:59:21.615Z,6.80
2023-06-30T19:01:49.941Z,6.68
2023-06-30T19:04:18.433Z,6.68
2023-06-30T19:06:48.575Z,6.43
2023-06-30T19:09:16.775Z,6.20
2023-06-30T19:11:46.123Z,6.03
2023-06-30T19:14:14.030Z,6.50
2023-06-30T19:16:41.953Z,6.45
2023-06-30T19:19:09.815Z,6.80
2023-06-30T19:21:37.992Z,7.05
2023-06-30T19:24:06.267Z,7.13
2023-06-30T19:26:36.951Z,6.75
2023-06-30T19:29:06.332Z,6.60
2023-06-30T19:31:34.377Z,6.72
2023-06-30T19:34:02.321Z,6.60
2023-06-30T19:36:32.823Z,6.25
2023-06-30T19:41:28.832Z,5.57
2023-06-30T19:43:56.867Z,6.03
2023-06-30T19:46:27.711Z,5.82
2023-06-30T19:48:55.807Z,6.65
2023-06-30T19:51:23.773Z,6.60
2023-06-30T19:53:51.726Z,5.85
2023-06-30T19:56:19.735Z,6.13
2023-06-30T19:58:47.656Z,6.07
2023-06-30T20:01:18.181Z,7.18
2023-06-30T20:03:47.848Z,7.60
2023-06-30T20:06:15.951Z,7.80
2023-06-30T20:08:43.861Z,6.30
2023-06-30T20:11:13.188Z,6.38
2023-06-30T20:13:41.768Z,6.88
2023-06-30T20:16:10.511Z,6.88
2023-06-30T20:18:38.521Z,6.47
2023-06-30T20:21:07.946Z,6.90
2023-06-30T20:23:35.896Z,7.70
2023-06-30T20:26:03.834Z,6.25
2023-06-30T20:28:31.770Z,6.25
2023-06-30T20:30:59.910Z,5.90
2023-06-30T20:33:28.079Z,5.03
2023-06-30T20:35:56.192Z,5.72
2023-06-30T20:38:25.678Z,4.85
2023-06-30T20:40:53.693Z,5.80
2023-06-30T20:43:21.614Z,5.15
2023-06-30T20:45:49.538Z,4.65
2023-06-30T20:48:20.494Z,5.10
2023-06-30T20:50:48.631Z,5.38
2023-06-30T20:53:17.199Z,4.88
2023-06-30T20:55:46.438Z,5.32
2023-06-30T20:58:14.439Z,5.20
2023-06-30T21:00:42.423Z,4.88
2023-06-30T21:03:11.243Z,5.90
2023-06-30T21:05:39.266Z,4.55
2023-06-30T21:08:07.238Z,4.45
2023-06-30T21:10:35.285Z,4.43
2023-06-30T21:13:04.609Z,4.82
2023-06-30T21:15:32.555Z,5.03
2023-06-30T21:18:00.637Z,4.20
2023-06-30T21:20:28.554Z,4.32
2023-06-30T21:22:56.485Z,4.90
2023-06-30T21:25:24.420Z,3.83
2023-06-30T21:27:52.320Z,4.75
2023-06-30T21:30:21.830Z,4.32
2023-06-30T21:32:49.921Z,3.87
2023-06-30T21:35:18.097Z,4.88
2023-06-30T21:37:46.160Z,4.40
2023-06-30T21:40:15.577Z,4.70
2023-06-30T21:42:44.613Z,4.40
2023-06-30T21:45:12.812Z,4.47
2023-06-30T21:47:42.117Z,4.18
2023-06-30T21:50:10.731Z,4.43
2023-06-30T21:52:38.670Z,4.53
2023-06-30T21:55:07.452Z,3.45
2023-06-30T21:57:35.448Z,4.10
2023-06-30T22:00:04.600Z,4.28
2023-06-30T22:02:32.771Z,3.90
2023-06-30T22:05:02.148Z,3.88
2023-06-30T22:07:31.185Z,3.33
2023-06-30T22:09:59.816Z,4.07
2023-06-30T22:12:27.849Z,3.88
2023-06-30T22:14:55.781Z,3.83
2023-06-30T22:17:23.813Z,3.83
2023-06-30T22:19:51.823Z,3.30
2023-06-30T22:22:21.184Z,3.72
2023-06-30T22:24:49.134Z,3.58
2023-06-30T22:27:17.104Z,4.47
2023-06-30T22:29:45.131Z,3.70
2023-06-30T22:32:14.626Z,3.55
2023-06-30T22:34:42.679Z,3.72
2023-06-30T22:37:10.771Z,3.20
2023-06-30T22:39:40.125Z,3.50
2023-06-30T22:42:08.608Z,3.47
2023-06-30T22:44:36.664Z,3.45
2023-06-30T22:47:04.887Z,3.55
2023-06-30T22:49:32.999Z,3.88
2023-06-30T22:52:00.902Z,3.72
2023-06-30T22:54:28.918Z,3.33
2023-06-30T22:56:59.208Z,4.07
2023-06-30T22:59:27.687Z,3.72
2023-06-30T23:01:55.635Z,3.10
2023-06-30T23:04:23.994Z,3.90
2023-06-30T23:06:51.983Z,3.83
2023-06-30T23:09:20.004Z,3.60
2023-06-30T23:11:47.877Z,4.25
2023-06-30T23:14:19.900Z,3.42
2023-06-30T23:16:48.791Z,3.20
2023-06-30T23:19:16.989Z,3.33
2023-06-30T23:21:45.716Z,3.67
2023-06-30T23:24:13.812Z,4.13
2023-06-30T23:26:42.483Z,3.20
2023-06-30T23:29:10.626Z,4.25
2023-06-30T23:31:40.349Z,4.28
2023-06-30T23:34:08.472Z,3.90
2023-06-30T23:36:37.307Z,3.83
2023-06-30T23:39:05.797Z,5.05
2023-06-30T23:41:33.904Z,4.07
2023-06-30T23:44:02.410Z,3.90
2023-06-30T23:46:31.661Z,3.70
2023-06-30T23:49:01.146Z,3.75
2023-06-30T23:51:29.093Z,4.03
2023-06-30T23:53:57.015Z,4.28
2023-06-30T23:56:25.009Z,4.10
2023-06-30T23:58:52.955Z,3.50
